Time;durP1;ratioP1;P1;durP2;ratioP2;P2;SDS_P1;SDS_P2;PMS_P1;PMS_P2;Temp;Humidity;BMP_temperature;BMP_pressure;BME280_temperature;BME280_humidity;BME280_pressure;Samples;Min_cycle;Max_cycle;Signal;HPM_P1;HPM_P2
2021/11/11 00:01:24;;;;;;;114.40;47.10;;;;;;;2.45;76.83;101171.13;102644;1315;24591;-55
2021/11/11 00:03:56;;;;;;;85.00;38.20;;;;;;;2.36;76.76;101167.86;102716;1317;22684;-58
2021/11/11 00:06:29;;;;;;;81.00;36.00;;;;;;;2.23;76.49;101166.27;102630;1317;25265;-57
2021/11/11 00:09:00;;;;;;;80.80;36.40;;;;;;;2.16;76.47;101161.80;102910;1317;22546;-55
2021/11/11 00:11:31;;;;;;;79.70;35.10;;;;;;;2.11;76.56;101164.19;102689;1313;25319;-58
2021/11/11 00:14:03;;;;;;;81.10;33.00;;;;;;;2.06;76.62;101163.57;102596;1313;22687;-57
2021/11/11 00:16:33;;;;;;;79.80;36.00;;;;;;;2.03;76.47;101174.45;102887;1317;22593;-58
2021/11/11 00:19:05;;;;;;;80.50;35.00;;;;;;;2.00;76.63;101176.73;102656;1317;24206;-58
2021/11/11 00:21:36;;;;;;;76.40;34.30;;;;;;;1.95;76.53;101180.53;102683;1318;22593;-56
2021/11/11 00:24:08;;;;;;;85.90;34.90;;;;;;;1.88;76.50;101183.23;102707;1318;25340;-57
2021/11/11 00:26:39;;;;;;;72.90;31.10;;;;;;;1.84;76.54;101178.91;102748;1313;306191;-56
2021/11/11 00:29:11;;;;;;;67.10;30.60;;;;;;;1.78;76.45;101173.02;102936;1315;22596;-57
2021/11/11 00:31:43;;;;;;;70.90;30.90;;;;;;;1.70;76.31;101167.92;102739;1313;24480;-57
2021/11/11 00:34:14;;;;;;;71.90;31.30;;;;;;;1.64;76.35;101171.95;102833;1314;22558;-56
2021/11/11 00:36:45;;;;;;;74.40;32.00;;;;;;;1.59;76.45;101168.96;102766;1318;22567;-57
2021/11/11 00:39:16;;;;;;;86.00;39.10;;;;;;;1.56;76.68;101180.30;102678;1317;24427;-57
2021/11/11 00:41:48;;;;;;;88.30;42.80;;;;;;;1.56;77.08;101181.08;102551;1317;22601;-57
2021/11/11 00:44:20;;;;;;;77.70;35.60;;;;;;;1.55;77.15;101183.91;102718;1313;24224;-57
2021/11/11 00:46:51;;;;;;;73.10;34.70;;;;;;;1.54;76.98;101182.02;102660;1317;22651;-57
2021/11/11 00:49:22;;;;;;;75.60;37.70;;;;;;;1.52;76.80;101177.88;102704;1314;22584;-56
2021/11/11 00:51:53;;;;;;;70.70;35.10;;;;;;;1.48;76.75;101180.31;102770;1311;22644;-57
2021/11/11 00:54:24;;;;;;;71.00;35.30;;;;;;;1.43;76.86;101175.67;102690;1313;24458;-57
2021/11/11 00:56:55;;;;;;;74.80;35.10;;;;;;;1.39;76.75;101177.40;102693;1316;24250;-57
2021/11/11 00:59:26;;;;;;;79.30;36.20;;;;;;;1.34;76.69;101173.32;102656;1313;26055;-59
2021/11/11 01:01:58;;;;;;;81.10;37.40;;;;;;;1.30;76.70;101180.00;102726;1316;26539;-57
2021/11/11 01:04:29;;;;;;;83.40;39.20;;;;;;;1.25;76.82;101177.40;102912;1316;22597;-56
2021/11/11 01:07:00;;;;;;;101.30;47.20;;;;;;;1.22;76.85;101167.42;102852;1319;24236;-58
2021/11/11 01:09:32;;;;;;;101.20;46.30;;;;;;;1.20;76.92;101167.11;102844;1317;25589;-58
2021/11/11 01:12:04;;;;;;;93.40;43.80;;;;;;;1.17;77.01;101168.21;102791;1313;25319;-58
2021/11/11 01:14:35;;;;;;;86.40;39.30;;;;;;;1.15;77.12;101168.69;102977;1309;22700;-57
2021/11/11 01:17:08;;;;;;;88.80;40.60;;;;;;;1.15;77.20;101166.89;102792;1314;22954;-57
2021/11/11 01:19:39;;;;;;;89.60;46.00;;;;;;;1.15;77.21;101157.23;102889;1311;22572;-58
2021/11/11 01:22:10;;;;;;;97.70;46.00;;;;;;;1.14;77.17;101154.38;102797;1311;22577;-57
2021/11/11 01:24:41;;;;;;;95.40;43.70;;;;;;;1.12;77.25;101159.34;102695;1318;22586;-58
2021/11/11 01:27:12;;;;;;;85.70;40.00;;;;;;;1.10;77.25;101158.39;102741;1315;25631;-58
2021/11/11 01:29:44;;;;;;;84.90;40.90;;;;;;;1.05;77.41;101156.66;102674;1313;22573;-57
2021/11/11 01:32:14;;;;;;;83.90;41.30;;;;;;;1.04;77.46;101159.02;102685;1313;22637;-58
2021/11/11 01:34:45;;;;;;;76.30;37.70;;;;;;;1.04;77.62;101162.55;102789;1314;25961;-58
2021/11/11 01:37:17;;;;;;;75.00;38.00;;;;;;;1.02;77.39;101163.27;102828;1315;22577;-58
2021/11/11 01:39:48;;;;;;;80.00;38.90;;;;;;;1.00;77.37;101163.80;102742;1318;25368;-57
2021/11/11 01:42:21;;;;;;;77.30;38.20;;;;;;;0.98;77.47;101163.80;102683;1316;25354;-57
2021/11/11 01:44:54;;;;;;;80.00;39.90;;;;;;;0.98;77.51;101160.67;102788;1313;25479;-58
2021/11/11 01:47:25;;;;;;;82.10;41.60;;;;;;;0.98;77.43;101163.96;102837;1311;22589;-56
2021/11/11 01:49:56;;;;;;;86.60;44.60;;;;;;;0.95;77.43;101159.41;102647;1314;25442;-56
2021/11/11 01:52:27;;;;;;;83.50;42.00;;;;;;;0.93;77.69;101159.16;102636;1317;22638;-58
2021/11/11 01:54:58;;;;;;;77.80;39.30;;;;;;;0.92;77.74;101156.48;102730;1312;23023;-57
2021/11/11 01:57:29;;;;;;;80.60;40.90;;;;;;;0.91;77.72;101153.59;102716;1311;26535;-57
2021/11/11 02:00:00;;;;;;;76.00;37.30;;;;;;;0.90;77.86;101145.81;102739;1315;27380;-58
2021/11/11 02:02:32;;;;;;;67.80;33.20;;;;;;;0.88;77.72;101136.47;102677;1311;25402;-58
2021/11/11 02:05:03;;;;;;;65.20;31.70;;;;;;;0.85;77.71;101130.80;103112;1311;22576;-57
2021/11/11 02:07:34;;;;;;;65.60;30.10;;;;;;;0.84;77.95;101133.32;102853;1312;22577;-57
2021/11/11 02:10:06;;;;;;;73.30;32.60;;;;;;;0.83;78.08;101134.57;102797;1317;22573;-58
2021/11/11 02:12:37;;;;;;;64.90;28.90;;;;;;;0.83;78.04;101134.89;102952;1317;25712;-57
2021/11/11 02:15:10;;;;;;;64.00;30.10;;;;;;;0.83;78.11;101137.09;102893;1312;25898;-58
2021/11/11 02:17:41;;;;;;;72.70;32.70;;;;;;;0.83;78.24;101138.11;103094;1311;24244;-58
2021/11/11 02:20:15;;;;;;;66.80;31.50;;;;;;;0.84;78.15;101134.73;102837;1313;25502;-57
2021/11/11 02:22:47;;;;;;;63.80;30.70;;;;;;;0.83;78.11;101134.96;102868;1318;22593;-58
2021/11/11 02:25:22;;;;;;;65.90;30.00;;;;;;;0.79;77.95;101133.95;102696;1313;24321;-56
2021/11/11 02:27:55;;;;;;;59.20;27.50;;;;;;;0.75;77.98;101127.81;102698;1312;24218;-57
2021/11/11 02:30:27;;;;;;;66.10;30.20;;;;;;;0.72;77.94;101127.89;103160;1315;25341;-58
2021/11/11 02:32:58;;;;;;;68.10;30.50;;;;;;;0.69;78.01;101129.77;102724;1318;24250;-57
2021/11/11 02:35:30;;;;;;;72.80;29.00;;;;;;;0.67;78.07;101130.39;102779;1318;24226;-58
2021/11/11 02:38:02;;;;;;;64.40;28.40;;;;;;;0.65;78.22;101131.73;102733;1311;23096;-58
2021/11/11 02:40:34;;;;;;;64.40;29.70;;;;;;;0.63;78.28;101131.95;102747;1318;22646;-57
2021/11/11 02:43:05;;;;;;;64.20;28.00;;;;;;;0.62;78.38;101130.63;102822;1316;24171;-56
2021/11/11 02:45:38;;;;;;;63.00;28.80;;;;;;;0.62;78.29;101136.52;102785;1318;24249;-58
2021/11/11 02:48:11;;;;;;;57.40;26.50;;;;;;;0.61;78.30;101138.23;102761;1313;25436;-57
2021/11/11 02:50:43;;;;;;;59.50;27.70;;;;;;;0.60;78.26;101138.63;102730;1313;22685;-56
2021/11/11 02:53:14;;;;;;;65.20;27.80;;;;;;;0.59;78.23;101127.08;102734;1311;24306;-58
2021/11/11 02:55:45;;;;;;;66.90;29.20;;;;;;;0.59;78.39;101122.45;102883;1309;24321;-58
2021/11/11 02:58:16;;;;;;;66.00;30.90;;;;;;;0.59;78.46;101113.66;102831;1311;22794;-58
2021/11/11 03:00:52;;;;;;;73.50;30.30;;;;;;;0.58;78.65;101103.38;102860;1316;22614;-56
2021/11/11 03:03:24;;;;;;;71.90;33.20;;;;;;;0.57;78.60;101097.27;103572;1300;24319;-59
2021/11/11 03:05:55;;;;;;;72.40;32.30;;;;;;;0.58;78.58;101096.70;103122;1313;22604;-61
2021/11/11 03:08:26;;;;;;;75.40;34.20;;;;;;;0.60;78.71;101104.48;103150;1314;25533;-61
2021/11/11 03:10:58;;;;;;;84.00;35.50;;;;;;;0.61;78.79;101106.45;103129;1310;22614;-60
2021/11/11 03:13:31;;;;;;;87.70;37.30;;;;;;;0.61;78.80;101108.64;103200;1315;22927;-59
2021/11/11 03:16:01;;;;;;;89.30;37.80;;;;;;;0.61;79.00;101110.21;103216;1316;25638;-61
2021/11/11 03:18:32;;;;;;;92.80;39.30;;;;;;;0.61;78.88;101108.33;103101;1314;22663;-59
2021/11/11 03:21:03;;;;;;;85.10;38.60;;;;;;;0.60;78.97;101110.92;103118;1310;22669;-59
2021/11/11 03:23:34;;;;;;;85.60;35.20;;;;;;;0.59;78.94;101119.46;103126;1316;24333;-59
2021/11/11 03:26:05;;;;;;;69.90;29.70;;;;;;;0.56;78.89;101116.56;103135;1316;24873;-59
2021/11/11 03:28:36;;;;;;;67.70;29.10;;;;;;;0.54;78.86;101119.23;103150;1310;25494;-61
2021/11/11 03:31:07;;;;;;;68.00;28.60;;;;;;;0.50;78.70;101121.88;103151;1316;25322;-61
2021/11/11 03:33:37;;;;;;;58.00;26.40;;;;;;;0.46;78.71;101124.63;103149;1316;22583;-59
2021/11/11 03:36:09;;;;;;;67.10;27.20;;;;;;;0.40;78.67;101121.00;103128;1310;24330;-61
2021/11/11 03:38:40;;;;;;;59.50;26.50;;;;;;;0.38;78.73;101116.20;103470;1314;25327;-58
2021/11/11 03:41:12;;;;;;;58.80;27.40;;;;;;;0.35;78.70;101113.60;103072;1309;22662;-61
2021/11/11 03:43:43;;;;;;;65.30;27.40;;;;;;;0.32;78.82;101111.86;103606;1316;22767;-59
2021/11/11 03:46:14;;;;;;;70.10;30.90;;;;;;;0.29;78.78;101109.98;103257;1316;24349;-59
2021/11/11 03:48:45;;;;;;;65.70;28.50;;;;;;;0.28;79.01;101102.70;103225;1316;22695;-61
2021/11/11 03:51:16;;;;;;;70.60;30.30;;;;;;;0.28;78.95;101102.45;103335;1314;22539;-59
2021/11/11 03:53:47;;;;;;;65.90;29.60;;;;;;;0.26;79.09;101106.84;103332;1309;22624;-59
2021/11/11 03:56:19;;;;;;;71.50;29.20;;;;;;;0.25;78.93;101110.45;103186;1310;24352;-59
2021/11/11 03:58:49;;;;;;;63.70;29.50;;;;;;;0.24;79.03;101105.82;103131;1314;22571;-60
2021/11/11 04:01:20;;;;;;;64.00;29.80;;;;;;;0.23;79.03;101100.15;103176;1310;22640;-59
2021/11/11 04:03:51;;;;;;;68.90;30.90;;;;;;;0.23;78.98;101104.64;103162;1309;24294;-62
2021/11/11 04:06:22;;;;;;;63.20;29.50;;;;;;;0.21;79.14;101109.19;103175;1315;25431;-61
2021/11/11 04:08:56;;;;;;;64.80;28.20;;;;;;;0.21;79.24;101106.67;103137;1311;24231;-61
2021/11/11 04:11:26;;;;;;;63.10;26.60;;;;;;;0.20;79.18;101103.14;103177;1309;25390;-59
2021/11/11 04:13:58;;;;;;;63.30;27.10;;;;;;;0.18;79.12;101103.45;103213;1316;23186;-59
2021/11/11 04:16:30;;;;;;;63.30;28.50;;;;;;;0.16;79.11;101111.27;103247;1309;22693;-61
2021/11/11 04:19:01;;;;;;;64.40;28.70;;;;;;;0.15;79.20;101112.46;103272;1316;22693;-59
2021/11/11 04:21:32;;;;;;;57.30;26.80;;;;;;;0.13;79.20;101106.41;103435;1315;25584;-59
2021/11/11 04:24:04;;;;;;;58.10;26.30;;;;;;;0.12;79.16;101107.50;103171;1310;25661;-60
2021/11/11 04:26:40;;;;;;;58.90;26.60;;;;;;;0.10;79.15;101105.15;103288;1310;24211;-59
2021/11/11 04:29:15;;;;;;;65.80;28.40;;;;;;;0.08;79.13;101103.26;103150;1310;22634;-59
2021/11/11 04:31:50;;;;;;;61.10;27.70;;;;;;;0.07;79.29;101104.02;103134;1314;24329;-60
2021/11/11 04:34:22;;;;;;;68.90;26.50;;;;;;;0.06;79.27;101112.73;103180;1316;22692;-58
2021/11/11 04:42:45;;;;;;;76.40;30.10;;;;;;;0.00;79.65;101105.11;103106;1310;23698;-58
2021/11/11 04:48:32;;;;;;;76.50;29.90;;;;;;;-0.03;79.48;101101.80;102584;1320;25404;-59
2021/11/11 04:59:42;;;;;;;58.20;25.20;;;;;;;-0.02;79.69;101104.23;102236;1321;24253;-60
2021/11/11 05:02:35;;;;;;;54.80;23.50;;;;;;;-0.00;79.88;101098.05;102195;1322;23264;-59
2021/11/11 05:05:07;;;;;;;52.20;23.30;;;;;;;-0.01;79.90;101094.77;102256;1325;22822;-59
2021/11/11 05:07:40;;;;;;;53.30;23.00;;;;;;;-0.02;79.90;101092.70;102334;1323;22601;-60
2021/11/11 05:10:12;;;;;;;57.00;24.20;;;;;;;-0.02;80.04;101091.13;102241;1321;23206;-60
2021/11/11 05:12:42;;;;;;;53.70;23.60;;;;;;;-0.00;79.98;101093.66;102501;1321;26420;-59
2021/11/11 05:15:14;;;;;;;57.90;26.10;;;;;;;-0.00;80.13;101093.35;102206;1320;25585;-60
2021/11/11 05:17:46;;;;;;;56.60;24.10;;;;;;;0.00;80.14;101091.39;102198;1320;23208;-61
2021/11/11 05:20:18;;;;;;;66.40;26.60;;;;;;;0.00;80.14;101090.38;102168;1326;22607;-59
2021/11/11 05:22:49;;;;;;;52.10;24.10;;;;;;;0.00;80.26;101087.30;102157;1327;22573;-58
2021/11/11 05:25:21;;;;;;;59.80;25.00;;;;;;;0.02;80.19;101091.88;102338;1316;22718;-58
2021/11/11 05:27:52;;;;;;;62.80;27.50;;;;;;;0.01;80.15;101086.77;102697;1320;25320;-59
2021/11/11 05:30:24;;;;;;;58.10;25.00;;;;;;;0.01;80.06;101082.52;102600;1315;25506;-58
2021/11/11 05:32:56;;;;;;;60.90;27.50;;;;;;;-0.03;79.84;101080.55;103111;1309;25345;-58
2021/11/11 05:35:28;;;;;;;51.00;24.40;;;;;;;-0.07;79.88;101081.79;103184;1316;25540;-58
2021/11/11 05:38:00;;;;;;;62.40;25.90;;;;;;;-0.09;79.87;101080.76;103179;1310;22645;-61
2021/11/11 05:40:32;;;;;;;62.80;26.50;;;;;;;-0.10;79.94;101082.02;103168;1310;22682;-60
2021/11/11 05:43:03;;;;;;;61.30;27.60;;;;;;;-0.10;80.22;101073.63;103207;1311;24263;-61
2021/11/11 05:45:34;;;;;;;64.60;26.40;;;;;;;-0.12;80.13;101066.95;103369;1310;22555;-62
2021/11/11 05:48:05;;;;;;;53.10;25.20;;;;;;;-0.13;80.03;101065.38;103175;1310;24476;-59
2021/11/11 05:50:37;;;;;;;56.50;26.40;;;;;;;-0.17;80.01;101064.90;103162;1309;25540;-60
2021/11/11 05:53:08;;;;;;;63.60;27.30;;;;;;;-0.19;80.11;101058.45;103184;1309;22626;-59
2021/11/11 05:55:40;;;;;;;67.70;30.10;;;;;;;-0.17;80.12;101069.05;103132;1309;24358;-57
2021/11/11 05:58:10;;;;;;;64.70;26.20;;;;;;;-0.16;80.22;101079.25;103222;1309;24439;-60
2021/11/11 06:00:42;;;;;;;59.70;26.10;;;;;;;-0.16;80.46;101079.80;103130;1310;25345;-59
2021/11/11 06:03:13;;;;;;;65.70;29.00;;;;;;;-0.17;80.55;101075.64;103179;1309;23869;-59
2021/11/11 06:05:44;;;;;;;63.10;27.30;;;;;;;-0.16;80.52;101072.73;103178;1310;22622;-59
2021/11/11 06:08:14;;;;;;;63.40;28.80;;;;;;;-0.18;80.39;101074.52;103140;1314;22717;-57
2021/11/11 06:10:46;;;;;;;59.60;25.80;;;;;;;-0.19;80.47;101076.09;103146;1309;24224;-56
2021/11/11 06:13:17;;;;;;;51.30;23.70;;;;;;;-0.19;80.45;101077.27;103184;1310;22574;-59
2021/11/11 06:15:48;;;;;;;49.50;23.30;;;;;;;-0.23;80.44;101081.56;103240;1309;25619;-58
2021/11/11 06:18:21;;;;;;;53.30;23.70;;;;;;;-0.26;80.33;101075.98;103160;1314;23124;-58
2021/11/11 06:20:59;;;;;;;51.30;22.30;;;;;;;-0.26;80.17;101069.95;103261;1309;25706;-59
2021/11/11 06:23:30;;;;;;;55.30;23.70;;;;;;;-0.30;80.13;101069.08;103148;1314;24338;-59
2021/11/11 06:26:01;;;;;;;59.10;26.70;;;;;;;-0.33;80.13;101068.44;103215;1309;24262;-59
2021/11/11 06:28:33;;;;;;;73.60;30.80;;;;;;;-0.34;80.28;101066.23;103173;1309;23370;-59
2021/11/11 06:31:04;;;;;;;63.30;30.10;;;;;;;-0.32;80.47;101069.70;103267;1316;24419;-58
2021/11/11 06:33:35;;;;;;;70.80;30.30;;;;;;;-0.31;80.59;101065.77;103184;1309;24322;-58
2021/11/11 06:36:07;;;;;;;69.40;30.70;;;;;;;-0.30;80.60;101071.52;103159;1309;25622;-58
2021/11/11 06:38:38;;;;;;;60.50;30.00;;;;;;;-0.31;80.87;101076.20;103221;1315;22573;-59
2021/11/11 06:41:10;;;;;;;70.00;31.10;;;;;;;-0.29;81.03;101082.33;103155;1309;24314;-58
2021/11/11 06:43:42;;;;;;;65.90;30.00;;;;;;;-0.28;81.12;101081.15;103217;1309;22596;-58
2021/11/11 06:46:14;;;;;;;77.50;33.70;;;;;;;-0.31;80.75;101080.28;103182;1315;24651;-58
2021/11/11 06:48:46;;;;;;;63.40;29.30;;;;;;;-0.33;80.89;101074.39;103256;1310;22580;-59
2021/11/11 06:51:18;;;;;;;58.70;27.40;;;;;;;-0.33;80.88;101070.39;103174;1309;25579;-58
2021/11/11 06:53:49;;;;;;;64.70;30.80;;;;;;;-0.32;81.03;101075.65;103192;1310;24422;-58
2021/11/11 06:56:20;;;;;;;62.80;29.90;;;;;;;-0.28;81.30;101077.86;103214;1310;24355;-59
2021/11/11 06:58:51;;;;;;;63.30;30.50;;;;;;;-0.25;81.48;101081.64;103159;1313;22567;-58
2021/11/11 07:01:22;;;;;;;62.50;30.60;;;;;;;-0.22;81.43;101082.35;103168;1309;25195;-59
2021/11/11 07:03:53;;;;;;;63.10;28.80;;;;;;;-0.21;81.42;101084.09;103153;1315;25657;-59
2021/11/11 07:06:24;;;;;;;61.40;26.50;;;;;;;-0.20;81.48;101085.50;103224;1316;22571;-58
2021/11/11 07:08:54;;;;;;;61.30;26.10;;;;;;;-0.21;81.48;101090.27;103183;1309;24428;-59
2021/11/11 07:11:25;;;;;;;60.50;25.00;;;;;;;-0.21;81.43;101092.63;103197;1309;25475;-59
2021/11/11 07:13:56;;;;;;;60.40;25.30;;;;;;;-0.21;81.64;101091.52;103200;1309;24329;-59
2021/11/11 07:16:27;;;;;;;59.60;26.70;;;;;;;-0.20;81.84;101094.52;103180;1314;24298;-59
2021/11/11 07:18:58;;;;;;;60.90;27.50;;;;;;;-0.19;81.88;101092.09;103151;1309;22712;-59
2021/11/11 07:21:29;;;;;;;61.10;27.70;;;;;;;-0.17;81.93;101096.56;103143;1310;24244;-61
2021/11/11 07:24:00;;;;;;;57.00;28.70;;;;;;;-0.13;81.95;101091.02;103217;1310;22649;-59
2021/11/11 07:26:30;;;;;;;59.10;27.50;;;;;;;-0.10;82.12;101086.40;103196;1310;25511;-60
2021/11/11 07:29:02;;;;;;;65.20;29.30;;;;;;;-0.06;82.53;101096.16;103219;1309;22629;-59
2021/11/11 07:31:32;;;;;;;66.70;30.00;;;;;;;-0.02;82.69;101096.16;103218;1309;22577;-60
2021/11/11 07:34:04;;;;;;;64.20;29.60;;;;;;;0.03;82.72;101094.13;103211;1316;24231;-59
2021/11/11 07:36:37;;;;;;;64.60;29.80;;;;;;;0.08;82.88;101083.73;103347;1315;24333;-60
2021/11/11 07:39:08;;;;;;;75.80;34.30;;;;;;;0.16;83.21;101074.56;103382;1309;26422;-59
2021/11/11 07:41:39;;;;;;;78.90;36.30;;;;;;;0.22;83.03;101067.92;103220;1310;22642;-62
2021/11/11 07:44:11;;;;;;;77.10;34.90;;;;;;;0.29;83.49;101068.95;103155;1314;22674;-59
2021/11/11 07:46:43;;;;;;;108.50;46.10;;;;;;;0.39;83.67;101072.97;103185;1309;23112;-59
2021/11/11 07:49:16;;;;;;;96.20;42.20;;;;;;;0.48;83.79;101067.88;103263;1310;25576;-59
2021/11/11 07:51:47;;;;;;;97.10;43.60;;;;;;;0.58;83.90;101067.98;103269;1314;22704;-59
2021/11/11 07:54:17;;;;;;;133.50;50.10;;;;;;;0.65;83.72;101071.11;103190;1309;25249;-59
2021/11/11 07:56:48;;;;;;;139.60;56.10;;;;;;;0.71;83.64;101078.34;103177;1310;22985;-59
2021/11/11 07:59:20;;;;;;;142.70;54.50;;;;;;;0.78;83.79;101076.63;103254;1310;22681;-59
2021/11/11 08:01:52;;;;;;;102.10;45.00;;;;;;;0.86;84.03;101078.34;103296;1314;23997;-59
2021/11/11 08:04:23;;;;;;;87.10;39.50;;;;;;;0.94;84.32;101084.86;103156;1310;22592;-59
2021/11/11 08:06:54;;;;;;;86.80;40.40;;;;;;;1.04;84.33;101091.38;103277;1309;23136;-59
2021/11/11 08:09:26;;;;;;;90.90;39.50;;;;;;;1.13;84.30;101092.23;103123;1309;22713;-59
2021/11/11 08:11:57;;;;;;;78.10;37.30;;;;;;;1.19;84.45;101092.06;103164;1310;25592;-65
2021/11/11 08:14:29;;;;;;;82.40;39.00;;;;;;;1.27;84.34;101091.73;103158;1314;22698;-58
2021/11/11 08:17:00;;;;;;;87.40;39.10;;;;;;;1.33;84.32;101086.71;103207;1310;23123;-58
2021/11/11 08:19:31;;;;;;;87.10;41.80;;;;;;;1.39;84.22;101085.44;103330;1309;25316;-59
2021/11/11 08:22:03;;;;;;;87.70;43.40;;;;;;;1.44;84.45;101079.98;103299;1310;22699;-60
2021/11/11 08:24:40;;;;;;;83.80;40.20;;;;;;;1.52;84.42;101082.58;103347;1310;25506;-58
2021/11/11 08:27:13;;;;;;;91.60;43.80;;;;;;;1.58;84.38;101082.95;102926;1310;384802;-59
2021/11/11 08:29:45;;;;;;;107.00;51.70;;;;;;;1.65;84.43;101080.02;103267;1309;22627;-57
2021/11/11 08:32:17;;;;;;;114.00;52.10;;;;;;;1.73;84.59;101071.50;103194;1314;22580;-58
2021/11/11 08:34:49;;;;;;;107.80;48.80;;;;;;;1.81;84.70;101075.87;103296;1314;22814;-59
2021/11/11 08:37:21;;;;;;;97.10;46.90;;;;;;;1.89;84.81;101076.94;103301;1316;22666;-58
2021/11/11 08:39:52;;;;;;;85.70;41.70;;;;;;;1.97;84.75;101077.69;103444;1309;22589;-58
2021/11/11 08:42:23;;;;;;;88.50;39.80;;;;;;;2.05;84.81;101077.50;103309;1309;25567;-58
2021/11/11 08:44:54;;;;;;;84.90;37.10;;;;;;;2.14;85.07;101085.55;103163;1314;23142;-59
2021/11/11 08:47:25;;;;;;;82.40;37.50;;;;;;;2.24;85.20;101085.97;103155;1314;24328;-59
2021/11/11 08:49:56;;;;;;;70.30;37.10;;;;;;;2.33;85.26;101087.17;103152;1310;22797;-59
2021/11/11 08:52:28;;;;;;;77.30;37.00;;;;;;;2.42;85.15;101087.91;103204;1310;22580;-58
2021/11/11 08:54:59;;;;;;;70.60;34.60;;;;;;;2.51;85.23;101088.80;103283;1309;22658;-59
2021/11/11 08:57:30;;;;;;;71.90;34.80;;;;;;;2.59;85.17;101083.71;103204;1309;24294;-59
2021/11/11 09:00:01;;;;;;;74.50;36.00;;;;;;;2.66;85.13;101086.96;103145;1310;22721;-59
2021/11/11 09:02:31;;;;;;;76.80;33.90;;;;;;;2.76;85.35;101083.19;103220;1310;25689;-59
2021/11/11 09:05:03;;;;;;;66.20;33.90;;;;;;;2.85;85.30;101083.82;103267;1314;25358;-58
2021/11/11 09:07:38;;;;;;;71.30;36.40;;;;;;;2.95;85.15;101084.21;103250;1309;23044;-59
2021/11/11 09:10:12;;;;;;;80.40;37.80;;;;;;;3.04;85.31;101086.49;103201;1313;22562;-59
2021/11/11 09:12:45;;;;;;;69.10;35.70;;;;;;;3.17;85.59;101087.09;103294;1316;25367;-59
2021/11/11 09:15:18;;;;;;;70.70;35.90;;;;;;;3.28;85.57;101083.98;103209;1309;25274;-59
2021/11/11 09:17:49;;;;;;;73.20;34.20;;;;;;;3.41;85.63;101081.96;103082;1310;24237;-60
2021/11/11 09:20:21;;;;;;;71.80;35.10;;;;;;;3.52;85.61;101081.46;103136;1309;25389;-60
2021/11/11 09:22:53;;;;;;;71.20;35.50;;;;;;;3.61;85.30;101080.88;103154;1310;22609;-60
2021/11/11 09:25:27;;;;;;;76.40;36.40;;;;;;;3.67;85.38;101085.55;103194;1309;26584;-61
2021/11/11 09:27:59;;;;;;;71.40;35.80;;;;;;;3.76;85.51;101087.66;103323;1316;24227;-60
2021/11/11 09:30:34;;;;;;;69.20;33.60;;;;;;;3.86;85.49;101086.84;103521;1309;24230;-60
2021/11/11 09:33:05;;;;;;;68.90;36.00;;;;;;;3.95;85.52;101085.53;103267;1309;22612;-62
2021/11/11 09:35:37;;;;;;;65.90;34.80;;;;;;;4.04;85.31;101085.58;103068;1309;26541;-62
2021/11/11 09:38:08;;;;;;;81.70;39.50;;;;;;;4.13;85.29;101086.71;103101;1309;22660;-61
2021/11/11 09:40:39;;;;;;;78.30;41.00;;;;;;;4.24;85.24;101087.99;103296;1309;22971;-61
2021/11/11 09:43:11;;;;;;;80.40;38.50;;;;;;;4.38;85.17;101087.81;103392;1315;22596;-62
2021/11/11 09:45:43;;;;;;;75.00;37.10;;;;;;;4.47;85.05;101091.15;103161;1310;25268;-61
2021/11/11 09:48:17;;;;;;;72.80;36.20;;;;;;;4.59;85.39;101092.31;103129;1309;25352;-66
2021/11/11 09:50:49;;;;;;;62.40;32.40;;;;;;;4.73;85.45;101091.63;103242;1309;22593;-62
2021/11/11 09:53:23;;;;;;;71.50;33.70;;;;;;;4.87;85.14;101080.41;103801;1309;24358;-63
2021/11/11 09:58:45;;;;;;;55.00;27.10;;;;;;;5.11;84.59;101078.67;103080;1309;22574;-58
2021/11/11 10:01:18;;;;;;;57.30;28.60;;;;;;;5.18;84.18;101078.16;103097;1309;25342;-60
2021/11/11 10:03:50;;;;;;;56.70;26.90;;;;;;;5.24;84.03;101078.84;103243;1315;25147;-61
2021/11/11 10:06:24;;;;;;;61.90;29.10;;;;;;;5.30;84.11;101075.80;103229;1309;22708;-61
2021/11/11 10:08:59;;;;;;;57.00;26.20;;;;;;;5.36;84.09;101071.66;103235;1310;25012;-63
2021/11/11 10:11:34;;;;;;;57.90;27.90;;;;;;;5.45;84.04;101068.07;103148;1309;22589;-61
2021/11/11 10:14:14;;;;;;;53.60;27.90;;;;;;;5.53;83.92;101061.98;103098;1309;26615;-62
2021/11/11 10:16:47;;;;;;;55.30;29.10;;;;;;;5.63;83.85;101059.58;103077;1309;22612;-61
2021/11/11 10:19:18;;;;;;;53.40;28.10;;;;;;;5.75;83.98;101059.11;103175;1310;22627;-61
2021/11/11 10:21:55;;;;;;;51.00;27.00;;;;;;;5.87;83.79;101058.42;103185;1309;24327;-62
2021/11/11 10:24:42;;;;;;;61.30;28.00;;;;;;;5.99;83.65;101062.77;103161;1309;24402;-61
2021/11/11 10:27:29;;;;;;;54.40;29.30;;;;;;;6.12;83.24;101057.66;103189;1309;22608;-60
2021/11/11 10:30:04;;;;;;;53.30;27.70;;;;;;;6.23;83.10;101057.73;103085;1309;24018;-61
2021/11/11 10:32:38;;;;;;;57.70;30.30;;;;;;;6.33;82.91;101060.03;103221;1309;25386;-60
2021/11/11 10:35:13;;;;;;;57.40;28.90;;;;;;;6.41;82.81;101058.42;103067;1309;22585;-60
2021/11/11 10:37:50;;;;;;;57.20;29.30;;;;;;;6.50;82.88;101051.71;103188;1315;22566;-62
2021/11/11 10:40:25;;;;;;;59.70;28.90;;;;;;;6.60;82.87;101051.48;103045;1310;23870;-64
2021/11/11 10:42:57;;;;;;;58.80;27.70;;;;;;;6.69;82.61;101051.91;103552;1310;24231;-67
2021/11/11 10:45:33;;;;;;;54.80;28.00;;;;;;;6.77;82.33;101053.94;103555;1309;26667;-62
2021/11/11 10:48:08;;;;;;;53.30;27.60;;;;;;;6.87;82.19;101057.42;103101;1310;22558;-63
2021/11/11 10:50:41;;;;;;;59.00;29.30;;;;;;;6.97;82.24;101059.08;103082;1308;24341;-63
2021/11/11 10:53:15;;;;;;;58.00;27.40;;;;;;;7.10;82.03;101061.27;103275;1309;22910;-62
2021/11/11 10:55:50;;;;;;;48.30;26.10;;;;;;;7.22;81.69;101060.17;103198;1309;24398;-62
2021/11/11 10:58:24;;;;;;;47.60;24.30;;;;;;;7.33;81.44;101058.52;103362;1310;25612;-64
2021/11/11 11:00:57;;;;;;;45.70;24.20;;;;;;;7.44;81.27;101057.98;103093;1309;22578;-62
2021/11/11 11:03:31;;;;;;;48.50;26.00;;;;;;;7.53;81.12;101060.60;103121;1309;26241;-62
2021/11/11 11:06:05;;;;;;;48.40;25.90;;;;;;;7.61;80.83;101061.67;103128;1309;22583;-62
2021/11/11 11:08:39;;;;;;;43.60;22.90;;;;;;;7.65;80.71;101062.80;103213;1309;25342;-62
2021/11/11 11:11:15;;;;;;;47.70;25.90;;;;;;;7.71;80.52;101065.76;103173;1309;22596;-61
2021/11/11 11:13:48;;;;;;;49.40;27.00;;;;;;;7.74;80.33;101065.91;103374;1309;23234;-63
2021/11/11 11:16:22;;;;;;;50.40;26.60;;;;;;;7.76;80.31;101066.01;103347;1309;26668;-62
2021/11/11 11:18:57;;;;;;;49.10;27.30;;;;;;;7.80;80.13;101059.95;103231;1309;22587;-60
2021/11/11 11:21:30;;;;;;;51.80;28.30;;;;;;;7.86;80.38;101058.88;103334;1309;24320;-60
2021/11/11 11:24:03;;;;;;;52.70;27.70;;;;;;;7.92;80.39;101054.11;103195;1309;23945;-63
2021/11/11 11:26:36;;;;;;;51.30;29.40;;;;;;;7.97;80.29;101053.17;103177;1309;25547;-61
2021/11/11 11:29:11;;;;;;;51.80;28.30;;;;;;;8.01;80.06;101047.47;103337;1314;22557;-61
2021/11/11 11:31:48;;;;;;;48.20;27.80;;;;;;;8.05;79.68;101047.48;103508;1309;24309;-63
2021/11/11 11:34:25;;;;;;;44.60;25.20;;;;;;;8.10;79.67;101047.21;103454;1309;22716;-61
2021/11/11 11:36:59;;;;;;;46.20;25.70;;;;;;;8.15;79.35;101044.60;103297;1309;24339;-61
2021/11/11 11:39:34;;;;;;;46.10;25.50;;;;;;;8.22;79.04;101047.39;103263;1309;25254;-61
2021/11/11 11:42:08;;;;;;;51.00;28.70;;;;;;;8.27;78.93;101041.66;103230;1310;22571;-63
2021/11/11 11:44:42;;;;;;;51.10;27.70;;;;;;;8.28;79.18;101038.50;103182;1309;24282;-62
2021/11/11 11:47:18;;;;;;;47.20;25.40;;;;;;;8.34;79.03;101039.54;103332;1309;25332;-62
2021/11/11 11:49:52;;;;;;;45.90;25.20;;;;;;;8.38;78.89;101040.66;103156;1310;22590;-64